Jordan Stratton

Jordan Stratton

Statistiques 2021

  • Courses courues : -
  • Nb de victoires : -
  • Nb de places : -
  • Écart gagnant : 2
  • Réussite à la gagne : -
  • Réussite à la place : -
Musique : (20) 5a (19) 4a 1a 3a (18) 3a 1a 1a 0a 2a 4a 2a 1a 1a 2a 4a 3a 8a 2a
DateRangCatégorieAlloc.Dist.HippodromeChevalRed. KmSpé.
08/08/20 5 Trot 261 020€ 1 609m Meadowlands Crystal Fashion 1'08"9 Attelé
12/10/19 4 Trot 23 853€ 2 011m USA-YONKERS Blenheim 1'13"5 Attelé
12/10/19 1 Trot 31 559€ 2 011m USA-YONKERS Melady's Monet 1'12"5 Attelé
12/10/19 3 Trot 229 357€ 2 011m USA-YONKERS Will Take Charge 1'11"9 Attelé
16/12/18 3 Trot 12 415€ 2 011m USA-YONKERS Muscle Ave 1'15"5 Attelé
16/12/18 1 Trot 18 800€ 2 011m USA-YONKERS Secret Bro 1'15"4 Attelé
16/12/18 1 Trot 23 056€ 2 011m USA-YONKERS Coastal Region 1'15"0 Attelé
16/12/18 0 Trot 20 396€ 2 011m USA-YONKERS Aberforth 1'16"3 Attelé
16/12/18 2 Trot 20 396€ 2 011m USA-YONKERS Dog Gone Lucky 1'14"6 Attelé
16/12/18 4 Trot 26 249€ 2 011m USA-YONKERS Only Passing Thru 1'15"5 Attelé
16/12/18 2 Trot 32 636€ 2 011m USA-YONKERS Drazzmatazz 1'14"9 Attelé
02/12/18 1 Trot 12 317€ 2 011m USA-YONKERS Muscle Ave 1'15"2 Attelé
02/12/18 1 Trot 22 243€ 2 011m USA-YONKERS Barry Black 1'14"5 Attelé
02/12/18 2 Trot 22 884€ 2 011m USA-YONKERS Girl Talk 1'14"3 Attelé
02/12/18 4 Trot 20 243€ 2 011m USA-YONKERS Cresurrey 1'14"9 Attelé
02/12/18 3 Trot 18 660€ 2 011m USA-YONKERS Secret Bro 1'14"9 Attelé
02/12/18 8 Trot 26 050€ 2 011m USA-YONKERS Money Maven 1'15"3 Attelé
25/11/18 2 Trot 12 270€ 2 011m USA-YONKERS Aberforth Attelé
25/11/18 7 Trot 20 159€ 2 011m USA-YONKERS Moose Madness Attelé
25/11/18 6 Trot 20 159€ 2 011m USA-YONKERS Cresurrey Attelé
25/11/18 4 Trot 25 943€ 2 011m USA-YONKERS Winneress Attelé
18/11/18 7 Trot 17 956€ 2 011m USA-YONKERS Montepulciano 1'16"2 Attelé
18/11/18 7 Trot 19 481€ 2 011m USA-YONKERS Gonna Fly 1'14"6 Attelé
18/11/18 8 Trot 22 022€ 2 011m USA-YONKERS Keystone Charger 1'15"3 Attelé
18/11/18 2 Trot 25 071€ 2 011m USA-YONKERS Drazzmatazz 1'12"7 Attelé
18/11/18 1 Trot 31 170€ 2 011m USA-YONKERS Crazy About Pat 1'13"3 Attelé
18/11/18 4 Trot 23 208€ 2 011m USA-YONKERS Lean Hanover 1'12"7 Attelé
04/11/18 5 Trot 22 022€ 2 011m USA-YONKERS Keystone Charger 1'14"6 Attelé
04/11/18 4 Trot 25 071€ 2 011m USA-YONKERS Drazzmatazz 1'13"6 Attelé
04/11/18 5 Trot 17 956€ 2 011m USA-YONKERS Secret Bro 1'15"4 Attelé
04/11/18 5 Trot 19 481€ 2 011m USA-YONKERS Madman Hall 1'14"4 Attelé
04/11/18 5 Trot 19 481€ 2 011m USA-YONKERS Silver Credit 1'14"5 Attelé
04/11/18 3 Trot 31 170€ 2 011m USA-YONKERS Lord Cromwell 1'13"0 Attelé
13/10/18 6 Trot 47 219€ 2 011m USA-YONKERS Lord Cromwell 1'13"4 Attelé
02/09/18 6 Trot 23 000€ 2 011m USA-YONKERS Kennel Buddy Attelé
02/09/18 3 Trot 23 000€ 2 011m USA-YONKERS Moose Madness Attelé
02/09/18 3 Trot 29 600€ 2 011m USA-YONKERS Kinetic King Attelé
02/09/18 7 Trot 120 000€ 2 414m USA-YONKERS Versachet Attelé
26/08/18 2 Trot 19 902€ 2 011m USA-YONKERS Blue Swan 1'13"2 Attelé
26/08/18 7 Trot 28 728€ 2 011m USA-YONKERS Tito 1'13"6 Attelé
26/08/18 0 Trot 25 613€ 2 011m USA-YONKERS Kennel Buddy 1'16"1 Attelé
12/08/18 3 Trot 20 098€ 2 011m USA-YONKERS Blue Swan Attelé
12/08/18 1 Trot 20 098€ 2 011m USA-YONKERS Kennel Buddy Attelé
12/08/18 2 Trot 25 865€ 2 011m USA-YONKERS Barry Black Attelé
12/08/18 5 Trot 25 865€ 2 011m USA-YONKERS Platoon Seelster Attelé
05/08/18 3 Trot 15 187€ 2 011m USA-YONKERS Seven Knights Attelé
05/08/18 1 Trot 22 435€ 2 011m USA-YONKERS Tito Attelé
05/08/18 0 Trot 28 648€ 2 011m USA-YONKERS Annapolis Hall Attelé
05/08/18 4 Trot 19 846€ 2 011m USA-YONKERS Gonna Fly Attelé
05/08/18 4 Trot 19 846€ 2 011m USA-YONKERS Kennel Buddy Attelé